Sun River, MT (59483)

5:18 PM MDT on October 22, 2014 (GMT -0600)
Infinity Lofts | Change Station
CLOSE
Current Station
Personal Weather Station
Location: Sun River, MT
Elevation: 3488 ft
Nearby Weather Stations

Elev 3488 ft 47.55 °N, 111.72 °W | Updated 12 minutes ago

Clear
Clear
60.1 °F
Feels Like 60.1 °F
N
16.6
Wind Variable Wind from SSW

Today
High -- | Low -- °F
--% Chance of Precip.
Yesterday
High -- | Low -- °F
Precip. -- in
7:55 AM 6:26 PM
Waning Crescent, 1% visible
Pressure 29.86 in
Visibility 10.0 miles
Clouds Clear
Dew Point 34 °F
Humidity 38%
Rainfall 0.00 in
Snow Depth Not available.
UV 1 out of 12
Pollen 3.60 out of 12
Air Quality Not available.
Flu Activity No Activity
METAR KGTF 222253Z 21015G26KT 10SM CLR 15/00 A2985 RMK AO2 PK WND 21030/2242 SLP111 T01500000

More Conditions Fewer Conditions

Pressure 29.86 in
Visibility 10.0 miles
Clouds Clear
Dew Point 34 °F
Humidity 38%
Rainfall 0.00 in
Snow Depth Not available.
UV 1 out of 12
Pollen 3.60 out of 12
Air Quality Not available.
Flu Activity No Activity
METAR KGTF 222253Z 21015G26KT 10SM CLR 15/00 A2985 RMK AO2 PK WND 21030/2242 SLP111 T01500000

More Conditions Fewer Conditions

10-Day Weather Forecast

Almanac

Astronomy

Oct. 22, 2014 Rise Set
Actual Time 7:55 AM MDT 6:26 PM MDT
Civil Twilight 7:24 AM MDT 6:57 PM MDT
Nautical Twilight 6:48 AM MDT 7:33 PM MDT
Astronomical Twilight 6:13 AM MDT 8:08 PM MDT
Moon 6:35 AM MDT 5:58 PM MDT
Length of Visible Light 11h 32m
Length of Day
10h 30m
Tomorrow will be 3m 14s shorter.
Waning Crescent, 1% of the Moon is Illuminated
Today
Waning Crescent
Oct 23
New
Oct 30
First Quarter
Nov 6
Full
Nov 14
Last Quarter

Today's Extremes

State Highs State Lows

Community

WunderPhotos

Upload Photos

1,764,075 photos uploaded!

WunderBlogs® & News

Nearby

Snow Depth

Station Depth Elevation
Wood Creek 0 in 5960 ft
Stringer Creek 0 in 6550 ft
Nevada Ridge 1 in 7020 ft
Deadman Creek 0 in 6450 ft
Spur Park 0 in 8100 ft

Earthquake Activity

City Distance Mag. Time & Date
No recent earthquake activity has been reported nearby.
Minimum magnitude displayed is 2.5.

Coastal Water Temperatures

Place Temperature
No Stations Reporting

Nearby Weather Stations